sensor_id;sensor_type;location;lat;lon;timestamp;pressure;altitude;pressure_sealevel;temperature;humidity
75759;BME280;64371;47.566;19.086;2023-09-07T00:01:27;101132.19;;;16.03;84.42
75759;BME280;64371;47.566;19.086;2023-09-07T00:04:30;101137.91;;;15.96;85.43
75759;BME280;64371;47.566;19.086;2023-09-07T00:07:34;101136.72;;;15.88;85.16
75759;BME280;64371;47.566;19.086;2023-09-07T00:10:37;101145.44;;;15.89;84.92
75759;BME280;64371;47.566;19.086;2023-09-07T00:13:40;101136.91;;;15.78;84.92
75759;BME280;64371;47.566;19.086;2023-09-07T00:16:43;101138.25;;;15.76;85.27
75759;BME280;64371;47.566;19.086;2023-09-07T00:19:46;101141.81;;;15.71;85.52
75759;BME280;64371;47.566;19.086;2023-09-07T00:22:53;101148.09;;;15.62;86.52
75759;BME280;64371;47.566;19.086;2023-09-07T00:25:55;101132.50;;;15.55;86.30
75759;BME280;64371;47.566;19.086;2023-09-07T00:28:57;101129.69;;;15.65;85.97
75759;BME280;64371;47.566;19.086;2023-09-07T00:32:01;101131.25;;;15.66;85.46
75759;BME280;64371;47.566;19.086;2023-09-07T00:35:05;101128.78;;;15.70;84.77
75759;BME280;64371;47.566;19.086;2023-09-07T00:38:07;101130.25;;;15.62;85.26
75759;BME280;64371;47.566;19.086;2023-09-07T00:41:11;101130.94;;;15.54;85.62
75759;BME280;64371;47.566;19.086;2023-09-07T00:44:13;101132.09;;;15.48;85.74
75759;BME280;64371;47.566;19.086;2023-09-07T00:47:16;101128.03;;;15.37;86.25
75759;BME280;64371;47.566;19.086;2023-09-07T00:50:19;101129.31;;;15.40;86.17
75759;BME280;64371;47.566;19.086;2023-09-07T00:53:21;101125.72;;;15.49;85.79
75759;BME280;64371;47.566;19.086;2023-09-07T00:56:27;101131.66;;;15.41;85.91
75759;BME280;64371;47.566;19.086;2023-09-07T00:59:34;101133.19;;;15.28;86.76
75759;BME280;64371;47.566;19.086;2023-09-07T01:02:36;101125.13;;;15.20;86.99
75759;BME280;64371;47.566;19.086;2023-09-07T01:09:10;101120.38;;;15.17;87.36
75759;BME280;64371;47.566;19.086;2023-09-07T01:12:16;101125.69;;;15.17;87.83
75759;BME280;64371;47.566;19.086;2023-09-07T01:15:19;101123.53;;;15.19;87.75
75759;BME280;64371;47.566;19.086;2023-09-07T01:18:23;101132.16;;;15.11;88.43
75759;BME280;64371;47.566;19.086;2023-09-07T01:21:32;101123.72;;;15.09;89.13
75759;BME280;64371;47.566;19.086;2023-09-07T01:24:37;101122.13;;;15.08;88.77
75759;BME280;64371;47.566;19.086;2023-09-07T01:27:41;101122.69;;;15.05;88.90
75759;BME280;64371;47.566;19.086;2023-09-07T01:30:45;101129.16;;;14.99;89.39
75759;BME280;64371;47.566;19.086;2023-09-07T01:33:47;101127.16;;;14.91;89.75
75759;BME280;64371;47.566;19.086;2023-09-07T01:36:50;101127.38;;;14.94;89.37
75759;BME280;64371;47.566;19.086;2023-09-07T01:39:52;101126.38;;;14.90;89.41
75759;BME280;64371;47.566;19.086;2023-09-07T01:42:55;101122.16;;;14.89;89.67
75759;BME280;64371;47.566;19.086;2023-09-07T01:45:57;101128.03;;;14.86;89.59
75759;BME280;64371;47.566;19.086;2023-09-07T01:49:00;101124.94;;;14.79;89.88
75759;BME280;64371;47.566;19.086;2023-09-07T01:52:03;101132.19;;;14.74;90.21
75759;BME280;64371;47.566;19.086;2023-09-07T01:55:05;101126.88;;;14.74;90.73
75759;BME280;64371;47.566;19.086;2023-09-07T01:58:08;101118.53;;;14.80;89.78
75759;BME280;64371;47.566;19.086;2023-09-07T02:01:21;101117.97;;;14.83;89.27
75759;BME280;64371;47.566;19.086;2023-09-07T02:04:24;101129.59;;;14.87;88.87
75759;BME280;64371;47.566;19.086;2023-09-07T02:07:26;101130.09;;;14.89;88.57
75759;BME280;64371;47.566;19.086;2023-09-07T02:10:29;101141.28;;;14.86;87.58
75759;BME280;64371;47.566;19.086;2023-09-07T02:13:33;101128.88;;;14.82;88.61
75759;BME280;64371;47.566;19.086;2023-09-07T02:16:35;101134.53;;;14.75;88.30
75759;BME280;64371;47.566;19.086;2023-09-07T02:19:38;101133.78;;;14.75;87.95
75759;BME280;64371;47.566;19.086;2023-09-07T02:22:40;101139.00;;;14.80;87.22
75759;BME280;64371;47.566;19.086;2023-09-07T02:25:42;101135.56;;;14.79;87.36
75759;BME280;64371;47.566;19.086;2023-09-07T02:28:45;101140.63;;;14.76;87.54
75759;BME280;64371;47.566;19.086;2023-09-07T02:31:47;101126.00;;;14.78;87.94
75759;BME280;64371;47.566;19.086;2023-09-07T02:34:50;101135.63;;;14.74;88.00
75759;BME280;64371;47.566;19.086;2023-09-07T02:37:53;101130.97;;;14.66;89.17
75759;BME280;64371;47.566;19.086;2023-09-07T02:40:56;101131.09;;;14.56;89.92
75759;BME280;64371;47.566;19.086;2023-09-07T02:44:00;101134.09;;;14.49;90.26
75759;BME280;64371;47.566;19.086;2023-09-07T02:47:03;101140.47;;;14.48;90.72
75759;BME280;64371;47.566;19.086;2023-09-07T02:50:06;101138.69;;;14.44;90.77
75759;BME280;64371;47.566;19.086;2023-09-07T02:53:08;101142.41;;;14.43;90.78
75759;BME280;64371;47.566;19.086;2023-09-07T02:56:11;101140.09;;;14.36;90.83
75759;BME280;64371;47.566;19.086;2023-09-07T02:59:15;101137.97;;;14.38;90.96
75759;BME280;64371;47.566;19.086;2023-09-07T03:02:18;101139.31;;;14.36;90.95
75759;BME280;64371;47.566;19.086;2023-09-07T03:05:20;101140.03;;;14.41;90.40
75759;BME280;64371;47.566;19.086;2023-09-07T03:08:23;101140.94;;;14.32;90.70
75759;BME280;64371;47.566;19.086;2023-09-07T03:11:27;101144.16;;;14.29;90.48
75759;BME280;64371;47.566;19.086;2023-09-07T03:14:36;101143.06;;;14.30;90.55
75759;BME280;64371;47.566;19.086;2023-09-07T03:17:38;101139.31;;;14.36;90.42
75759;BME280;64371;47.566;19.086;2023-09-07T03:20:41;101144.94;;;14.29;91.24
75759;BME280;64371;47.566;19.086;2023-09-07T03:23:46;101143.41;;;14.23;91.89
75759;BME280;64371;47.566;19.086;2023-09-07T03:26:50;101140.97;;;14.27;92.51
75759;BME280;64371;47.566;19.086;2023-09-07T03:29:52;101143.97;;;14.20;92.98
75759;BME280;64371;47.566;19.086;2023-09-07T03:32:56;101143.41;;;14.23;92.96
75759;BME280;64371;47.566;19.086;2023-09-07T03:35:59;101144.59;;;14.12;93.63
75759;BME280;64371;47.566;19.086;2023-09-07T03:39:01;101149.44;;;14.05;93.97
75759;BME280;64371;47.566;19.086;2023-09-07T03:42:04;101150.59;;;13.99;94.47
75759;BME280;64371;47.566;19.086;2023-09-07T03:45:06;101154.53;;;14.02;94.00
75759;BME280;64371;47.566;19.086;2023-09-07T03:48:09;101152.50;;;13.93;94.26
75759;BME280;64371;47.566;19.086;2023-09-07T03:51:13;101148.50;;;13.96;93.34
75759;BME280;64371;47.566;19.086;2023-09-07T03:54:15;101148.16;;;14.03;92.36
75759;BME280;64371;47.566;19.086;2023-09-07T03:57:19;101153.50;;;13.97;92.32
75759;BME280;64371;47.566;19.086;2023-09-07T04:00:22;101158.81;;;13.97;92.26
75759;BME280;64371;47.566;19.086;2023-09-07T04:03:27;101155.34;;;14.02;92.20
75759;BME280;64371;47.566;19.086;2023-09-07T04:06:31;101155.47;;;13.87;92.75
75759;BME280;64371;47.566;19.086;2023-09-07T04:09:33;101159.09;;;13.96;92.65
75759;BME280;64371;47.566;19.086;2023-09-07T04:12:35;101157.19;;;14.02;92.23
75759;BME280;64371;47.566;19.086;2023-09-07T04:15:42;101161.19;;;13.99;92.13
75759;BME280;64371;47.566;19.086;2023-09-07T04:18:45;101168.91;;;13.95;92.59
75759;BME280;64371;47.566;19.086;2023-09-07T04:21:48;101162.59;;;13.91;93.05
75759;BME280;64371;47.566;19.086;2023-09-07T04:24:50;101168.91;;;13.95;92.72
75759;BME280;64371;47.566;19.086;2023-09-07T04:27:53;101173.94;;;13.97;93.08
75759;BME280;64371;47.566;19.086;2023-09-07T04:30:55;101172.84;;;13.98;92.81
75759;BME280;64371;47.566;19.086;2023-09-07T04:33:58;101167.28;;;14.00;92.91
75759;BME280;64371;47.566;19.086;2023-09-07T04:37:01;101170.00;;;13.94;93.49
75759;BME280;64371;47.566;19.086;2023-09-07T04:40:06;101175.81;;;13.96;93.63
75759;BME280;64371;47.566;19.086;2023-09-07T04:43:08;101173.09;;;14.02;92.99
75759;BME280;64371;47.566;19.086;2023-09-07T04:46:11;101169.91;;;14.05;92.98
75759;BME280;64371;47.566;19.086;2023-09-07T04:49:15;101175.41;;;14.08;92.83
75759;BME280;64371;47.566;19.086;2023-09-07T04:52:17;101174.34;;;14.09;93.10
75759;BME280;64371;47.566;19.086;2023-09-07T04:55:20;101179.00;;;14.17;92.67
75759;BME280;64371;47.566;19.086;2023-09-07T04:58:23;101174.16;;;14.24;91.58
75759;BME280;64371;47.566;19.086;2023-09-07T05:01:25;101178.91;;;14.27;91.14
75759;BME280;64371;47.566;19.086;2023-09-07T05:04:29;101189.94;;;14.39;89.86
75759;BME280;64371;47.566;19.086;2023-09-07T05:07:34;101180.84;;;14.45;89.42
75759;BME280;64371;47.566;19.086;2023-09-07T05:10:37;101185.13;;;14.65;88.31
75759;BME280;64371;47.566;19.086;2023-09-07T05:13:40;101192.66;;;15.14;85.51
75759;BME280;64371;47.566;19.086;2023-09-07T05:16:43;101182.25;;;15.68;82.24
75759;BME280;64371;47.566;19.086;2023-09-07T05:19:51;101191.41;;;16.22;79.27
75759;BME280;64371;47.566;19.086;2023-09-07T05:22:54;101192.19;;;16.63;77.11
75759;BME280;64371;47.566;19.086;2023-09-07T05:25:59;101192.47;;;16.75;76.13
75759;BME280;64371;47.566;19.086;2023-09-07T05:29:02;101195.72;;;16.86;75.78
75759;BME280;64371;47.566;19.086;2023-09-07T05:32:05;101197.97;;;17.37;74.02
75759;BME280;64371;47.566;19.086;2023-09-07T05:35:08;101199.81;;;17.72;72.09
75759;BME280;64371;47.566;19.086;2023-09-07T05:38:14;101191.94;;;17.98;71.86
75759;BME280;64371;47.566;19.086;2023-09-07T05:41:18;101197.47;;;18.10;70.56
75759;BME280;64371;47.566;19.086;2023-09-07T05:44:20;101195.47;;;18.63;67.75
75759;BME280;64371;47.566;19.086;2023-09-07T05:47:23;101200.69;;;18.85;67.06
75759;BME280;64371;47.566;19.086;2023-09-07T05:50:29;101200.06;;;18.88;67.04
75759;BME280;64371;47.566;19.086;2023-09-07T05:53:33;101212.81;;;18.91;66.82
75759;BME280;64371;47.566;19.086;2023-09-07T05:56:36;101210.75;;;18.97;67.05
75759;BME280;64371;47.566;19.086;2023-09-07T05:59:38;101205.25;;;18.93;66.97
75759;BME280;64371;47.566;19.086;2023-09-07T06:02:47;101211.72;;;19.35;65.50
75759;BME280;64371;47.566;19.086;2023-09-07T06:05:50;101216.78;;;19.37;65.57
75759;BME280;64371;47.566;19.086;2023-09-07T06:08:55;101207.31;;;19.22;65.63
75759;BME280;64371;47.566;19.086;2023-09-07T06:12:10;101213.47;;;19.40;65.41
75759;BME280;64371;47.566;19.086;2023-09-07T06:15:18;101220.81;;;19.68;64.30
75759;BME280;64371;47.566;19.086;2023-09-07T06:18:21;101222.00;;;19.97;62.91
75759;BME280;64371;47.566;19.086;2023-09-07T06:21:26;101217.22;;;20.11;62.26
75759;BME280;64371;47.566;19.086;2023-09-07T06:24:29;101223.22;;;20.08;62.95
75759;BME280;64371;47.566;19.086;2023-09-07T06:27:33;101215.16;;;20.16;62.70
75759;BME280;64371;47.566;19.086;2023-09-07T06:30:36;101222.13;;;20.46;61.09
75759;BME280;64371;47.566;19.086;2023-09-07T06:33:39;101218.38;;;20.89;60.20
75759;BME280;64371;47.566;19.086;2023-09-07T06:36:41;101217.84;;;20.75;59.52
75759;BME280;64371;47.566;19.086;2023-09-07T06:39:52;101225.63;;;20.68;60.13
75759;BME280;64371;47.566;19.086;2023-09-07T06:42:58;101219.72;;;21.24;58.15
75759;BME280;64371;47.566;19.086;2023-09-07T06:46:08;101226.13;;;21.64;56.65
75759;BME280;64371;47.566;19.086;2023-09-07T06:49:12;101229.47;;;21.61;56.82
75759;BME280;64371;47.566;19.086;2023-09-07T06:52:14;101226.44;;;21.96;55.69
75759;BME280;64371;47.566;19.086;2023-09-07T06:55:18;101232.72;;;21.67;56.57
75759;BME280;64371;47.566;19.086;2023-09-07T06:58:23;101232.25;;;21.98;55.79
75759;BME280;64371;47.566;19.086;2023-09-07T07:01:26;101227.69;;;22.10;55.31
75759;BME280;64371;47.566;19.086;2023-09-07T07:04:31;101232.47;;;21.93;55.65
75759;BME280;64371;47.566;19.086;2023-09-07T07:07:53;101240.47;;;22.50;55.03
75759;BME280;64371;47.566;19.086;2023-09-07T07:11:02;101243.47;;;22.48;54.54
75759;BME280;64371;47.566;19.086;2023-09-07T07:14:05;101243.38;;;22.57;54.51
75759;BME280;64371;47.566;19.086;2023-09-07T07:17:07;101232.19;;;22.55;55.00
75759;BME280;64371;47.566;19.086;2023-09-07T07:20:15;101239.25;;;22.71;54.29
75759;BME280;64371;47.566;19.086;2023-09-07T07:23:25;101237.50;;;23.31;52.71
75759;BME280;64371;47.566;19.086;2023-09-07T07:26:33;101243.84;;;23.23;53.18
75759;BME280;64371;47.566;19.086;2023-09-07T07:29:38;101243.13;;;23.81;51.30
75759;BME280;64371;47.566;19.086;2023-09-07T07:32:42;101244.09;;;23.89;50.85
75759;BME280;64371;47.566;19.086;2023-09-07T07:35:47;101246.59;;;23.26;52.99
75759;BME280;64371;47.566;19.086;2023-09-07T07:39:22;101236.97;;;23.37;52.99
75759;BME280;64371;47.566;19.086;2023-09-07T07:42:25;101243.41;;;23.48;52.81
75759;BME280;64371;47.566;19.086;2023-09-07T07:45:28;101235.44;;;23.52;52.52
75759;BME280;64371;47.566;19.086;2023-09-07T07:48:32;101240.75;;;24.07;51.82
75759;BME280;64371;47.566;19.086;2023-09-07T07:51:39;101242.22;;;24.71;49.76
75759;BME280;64371;47.566;19.086;2023-09-07T07:54:41;101244.00;;;24.63;50.48
75759;BME280;64371;47.566;19.086;2023-09-07T07:57:45;101241.41;;;24.51;50.12
75759;BME280;64371;47.566;19.086;2023-09-07T08:00:47;101237.91;;;25.20;48.56
75759;BME280;64371;47.566;19.086;2023-09-07T08:04:01;101234.91;;;24.71;49.84
75759;BME280;64371;47.566;19.086;2023-09-07T08:07:08;101232.13;;;24.49;51.10
75759;BME280;64371;47.566;19.086;2023-09-07T08:10:12;101236.09;;;25.66;48.49
75759;BME280;64371;47.566;19.086;2023-09-07T08:13:15;101234.56;;;26.10;46.85
75759;BME280;64371;47.566;19.086;2023-09-07T08:16:18;101236.84;;;26.08;46.79
75759;BME280;64371;47.566;19.086;2023-09-07T08:19:27;101246.25;;;26.67;46.07
75759;BME280;64371;47.566;19.086;2023-09-07T08:22:37;101236.78;;;27.10;44.49
75759;BME280;64371;47.566;19.086;2023-09-07T08:25:44;101233.91;;;26.95;44.76
75759;BME280;64371;47.566;19.086;2023-09-07T08:28:50;101228.16;;;27.34;44.01
75759;BME280;64371;47.566;19.086;2023-09-07T08:31:57;101230.88;;;27.01;44.43
75759;BME280;64371;47.566;19.086;2023-09-07T08:39:01;101220.59;;;26.31;45.99
75759;BME280;64371;47.566;19.086;2023-09-07T08:42:08;101217.91;;;26.31;46.18
75759;BME280;64371;47.566;19.086;2023-09-07T08:45:16;101209.25;;;27.04;43.66
75759;BME280;64371;47.566;19.086;2023-09-07T08:48:27;101210.59;;;27.21;40.84
75759;BME280;64371;47.566;19.086;2023-09-07T08:51:32;101211.31;;;27.14;39.56
75759;BME280;64371;47.566;19.086;2023-09-07T08:54:35;101207.88;;;27.50;39.94
75759;BME280;64371;47.566;19.086;2023-09-07T08:57:39;101204.28;;;27.83;39.01
75759;BME280;64371;47.566;19.086;2023-09-07T09:00:42;101207.25;;;28.11;37.83
75759;BME280;64371;47.566;19.086;2023-09-07T09:03:47;101204.09;;;27.62;38.42
75759;BME280;64371;47.566;19.086;2023-09-07T09:06:54;101206.81;;;26.66;39.70
75759;BME280;64371;47.566;19.086;2023-09-07T09:10:06;101194.44;;;27.28;39.85
75759;BME280;64371;47.566;19.086;2023-09-07T09:13:27;101197.00;;;27.91;38.35
75759;BME280;64371;47.566;19.086;2023-09-07T09:16:36;101193.78;;;27.75;38.38
75759;BME280;64371;47.566;19.086;2023-09-07T09:19:48;101197.16;;;28.08;37.37
75759;BME280;64371;47.566;19.086;2023-09-07T09:22:56;101185.38;;;28.41;36.85
75759;BME280;64371;47.566;19.086;2023-09-07T09:26:11;101191.31;;;28.03;37.23
75759;BME280;64371;47.566;19.086;2023-09-07T09:29:16;101189.81;;;27.65;36.85
75759;BME280;64371;47.566;19.086;2023-09-07T09:32:22;101185.88;;;28.03;36.60
75759;BME280;64371;47.566;19.086;2023-09-07T09:35:28;101184.44;;;28.19;36.75
75759;BME280;64371;47.566;19.086;2023-09-07T09:38:34;101186.38;;;27.72;36.27
75759;BME280;64371;47.566;19.086;2023-09-07T09:41:37;101179.03;;;27.32;36.62
75759;BME280;64371;47.566;19.086;2023-09-07T09:44:41;101189.19;;;27.82;36.05
75759;BME280;64371;47.566;19.086;2023-09-07T09:47:46;101175.91;;;28.17;36.06
75759;BME280;64371;47.566;19.086;2023-09-07T09:50:50;101175.66;;;29.19;34.08
75759;BME280;64371;47.566;19.086;2023-09-07T09:53:53;101176.09;;;28.49;35.06
75759;BME280;64371;47.566;19.086;2023-09-07T09:56:56;101175.88;;;28.72;34.63
75759;BME280;64371;47.566;19.086;2023-09-07T10:00:05;101171.63;;;28.74;34.22
75759;BME280;64371;47.566;19.086;2023-09-07T10:03:36;101173.69;;;29.16;34.47
75759;BME280;64371;47.566;19.086;2023-09-07T10:06:53;101169.47;;;29.43;32.91
75759;BME280;64371;47.566;19.086;2023-09-07T10:10:02;101171.06;;;29.58;33.71
75759;BME280;64371;47.566;19.086;2023-09-07T10:13:13;101174.09;;;28.39;32.80
75759;BME280;64371;47.566;19.086;2023-09-07T10:16:21;101159.72;;;28.32;33.51
75759;BME280;64371;47.566;19.086;2023-09-07T10:19:25;101168.91;;;28.13;33.39
75759;BME280;64371;47.566;19.086;2023-09-07T10:22:32;101165.66;;;28.48;33.28
75759;BME280;64371;47.566;19.086;2023-09-07T10:25:58;101168.00;;;28.56;33.50
75759;BME280;64371;47.566;19.086;2023-09-07T10:29:00;101166.94;;;28.68;32.87
75759;BME280;64371;47.566;19.086;2023-09-07T10:32:10;101157.84;;;28.39;33.54
75759;BME280;64371;47.566;19.086;2023-09-07T10:35:34;101158.63;;;27.85;33.54
75759;BME280;64371;47.566;19.086;2023-09-07T10:38:37;101165.81;;;27.63;34.11
75759;BME280;64371;47.566;19.086;2023-09-07T10:41:48;101147.63;;;28.15;32.70
75759;BME280;64371;47.566;19.086;2023-09-07T10:44:53;101145.25;;;28.10;32.98
75759;BME280;64371;47.566;19.086;2023-09-07T10:48:01;101139.53;;;28.18;33.40
75759;BME280;64371;47.566;19.086;2023-09-07T10:51:06;101141.47;;;28.21;33.43
75759;BME280;64371;47.566;19.086;2023-09-07T10:54:21;101146.53;;;27.72;34.50
75759;BME280;64371;47.566;19.086;2023-09-07T10:57:24;101138.44;;;27.35;34.45
75759;BME280;64371;47.566;19.086;2023-09-07T11:00:26;101133.63;;;27.18;35.62
75759;BME280;64371;47.566;19.086;2023-09-07T11:03:30;101133.53;;;27.48;35.00
75759;BME280;64371;47.566;19.086;2023-09-07T11:06:34;101137.69;;;27.82;35.32
75759;BME280;64371;47.566;19.086;2023-09-07T11:09:41;101119.13;;;27.84;33.65
75759;BME280;64371;47.566;19.086;2023-09-07T11:12:43;101132.50;;;27.23;35.41
75759;BME280;64371;47.566;19.086;2023-09-07T11:15:46;101133.00;;;26.95;35.42
75759;BME280;64371;47.566;19.086;2023-09-07T11:18:50;101129.84;;;26.89;35.08
75759;BME280;64371;47.566;19.086;2023-09-07T11:21:54;101125.16;;;26.86;34.89
75759;BME280;64371;47.566;19.086;2023-09-07T11:24:59;101117.22;;;27.04;35.06
75759;BME280;64371;47.566;19.086;2023-09-07T11:28:06;101124.63;;;27.07;35.33
75759;BME280;64371;47.566;19.086;2023-09-07T11:31:08;101111.19;;;27.18;34.74
75759;BME280;64371;47.566;19.086;2023-09-07T11:34:16;101112.94;;;26.99;35.43
75759;BME280;64371;47.566;19.086;2023-09-07T11:37:24;101099.22;;;27.19;35.23
75759;BME280;64371;47.566;19.086;2023-09-07T11:40:27;101103.16;;;27.28;35.03
75759;BME280;64371;47.566;19.086;2023-09-07T11:43:29;101097.28;;;27.19;34.72
75759;BME280;64371;47.566;19.086;2023-09-07T11:46:32;101096.72;;;27.40;35.18
75759;BME280;64371;47.566;19.086;2023-09-07T11:49:35;101098.78;;;27.57;32.49
75759;BME280;64371;47.566;19.086;2023-09-07T11:52:37;101099.41;;;27.40;33.25
75759;BME280;64371;47.566;19.086;2023-09-07T11:55:42;101095.97;;;27.43;32.97
75759;BME280;64371;47.566;19.086;2023-09-07T11:58:46;101091.09;;;27.62;32.36
75759;BME280;64371;47.566;19.086;2023-09-07T12:01:49;101099.84;;;27.42;31.87
75759;BME280;64371;47.566;19.086;2023-09-07T12:04:51;101088.59;;;27.40;32.25
75759;BME280;64371;47.566;19.086;2023-09-07T12:07:54;101083.47;;;27.79;32.94
75759;BME280;64371;47.566;19.086;2023-09-07T12:10:56;101079.81;;;27.53;32.77
75759;BME280;64371;47.566;19.086;2023-09-07T12:13:59;101065.50;;;27.53;33.41
75759;BME280;64371;47.566;19.086;2023-09-07T12:17:02;101078.28;;;27.56;33.78
75759;BME280;64371;47.566;19.086;2023-09-07T12:20:06;101079.44;;;27.55;33.74
75759;BME280;64371;47.566;19.086;2023-09-07T12:23:13;101073.38;;;27.72;33.35
75759;BME280;64371;47.566;19.086;2023-09-07T12:26:16;101074.94;;;27.77;33.41
75759;BME280;64371;47.566;19.086;2023-09-07T12:29:19;101076.31;;;27.53;33.09
75759;BME280;64371;47.566;19.086;2023-09-07T12:32:22;101074.22;;;27.36;33.21
75759;BME280;64371;47.566;19.086;2023-09-07T12:35:25;101073.66;;;27.60;33.11
75759;BME280;64371;47.566;19.086;2023-09-07T12:38:27;101066.38;;;27.71;33.10
75759;BME280;64371;47.566;19.086;2023-09-07T12:41:31;101063.50;;;27.46;33.70
75759;BME280;64371;47.566;19.086;2023-09-07T12:44:34;101062.94;;;27.30;33.44
75759;BME280;64371;47.566;19.086;2023-09-07T12:47:42;101061.59;;;27.50;33.08
75759;BME280;64371;47.566;19.086;2023-09-07T12:50:44;101060.47;;;27.51;32.51
75759;BME280;64371;47.566;19.086;2023-09-07T12:53:47;101056.72;;;27.70;32.53
75759;BME280;64371;47.566;19.086;2023-09-07T12:56:51;101053.84;;;28.00;32.46
75759;BME280;64371;47.566;19.086;2023-09-07T12:59:55;101053.03;;;27.99;31.94
75759;BME280;64371;47.566;19.086;2023-09-07T13:02:57;101053.09;;;28.06;32.06
75759;BME280;64371;47.566;19.086;2023-09-07T13:06:07;101056.66;;;27.63;32.33
75759;BME280;64371;47.566;19.086;2023-09-07T13:09:12;101042.38;;;27.66;32.53
75759;BME280;64371;47.566;19.086;2023-09-07T13:12:14;101046.53;;;27.53;31.76
75759;BME280;64371;47.566;19.086;2023-09-07T13:15:16;101044.97;;;27.52;33.42
75759;BME280;64371;47.566;19.086;2023-09-07T13:18:19;101035.25;;;27.47;32.64
75759;BME280;64371;47.566;19.086;2023-09-07T13:21:21;101046.13;;;27.51;32.59
75759;BME280;64371;47.566;19.086;2023-09-07T13:24:24;101045.81;;;27.63;32.08
75759;BME280;64371;47.566;19.086;2023-09-07T13:27:27;101034.38;;;27.87;32.33
75759;BME280;64371;47.566;19.086;2023-09-07T13:30:30;101038.09;;;27.65;32.45
75759;BME280;64371;47.566;19.086;2023-09-07T13:33:32;101033.16;;;27.78;31.75
75759;BME280;64371;47.566;19.086;2023-09-07T13:36:35;101033.06;;;27.67;32.38
75759;BME280;64371;47.566;19.086;2023-09-07T13:39:37;101037.03;;;27.80;32.19
75759;BME280;64371;47.566;19.086;2023-09-07T13:42:40;101029.59;;;27.67;32.55
75759;BME280;64371;47.566;19.086;2023-09-07T13:45:42;101033.47;;;27.66;31.01
75759;BME280;64371;47.566;19.086;2023-09-07T13:48:46;101027.25;;;27.65;31.73
75759;BME280;64371;47.566;19.086;2023-09-07T13:51:48;101032.72;;;27.72;31.74
75759;BME280;64371;47.566;19.086;2023-09-07T13:54:52;101019.19;;;27.72;31.91
75759;BME280;64371;47.566;19.086;2023-09-07T13:57:55;101024.63;;;27.76;32.24
75759;BME280;64371;47.566;19.086;2023-09-07T14:00:58;101028.13;;;27.83;31.14
75759;BME280;64371;47.566;19.086;2023-09-07T14:04:00;101020.78;;;27.80;30.40
75759;BME280;64371;47.566;19.086;2023-09-07T14:07:02;101007.59;;;27.79;31.52
75759;BME280;64371;47.566;19.086;2023-09-07T14:10:05;101017.28;;;27.80;31.46
75759;BME280;64371;47.566;19.086;2023-09-07T14:13:08;101020.75;;;27.73;31.53
75759;BME280;64371;47.566;19.086;2023-09-07T14:16:10;101018.44;;;27.75;30.87
75759;BME280;64371;47.566;19.086;2023-09-07T14:19:13;101015.75;;;27.82;31.07
75759;BME280;64371;47.566;19.086;2023-09-07T14:22:19;101013.00;;;27.79;31.32
75759;BME280;64371;47.566;19.086;2023-09-07T14:25:22;101011.03;;;27.72;29.77
75759;BME280;64371;47.566;19.086;2023-09-07T14:28:25;101002.47;;;27.63;29.95
75759;BME280;64371;47.566;19.086;2023-09-07T14:31:28;101007.50;;;27.61;29.45
75759;BME280;64371;47.566;19.086;2023-09-07T14:34:30;101004.00;;;27.60;29.67
75759;BME280;64371;47.566;19.086;2023-09-07T14:37:33;101000.44;;;27.49;30.18
75759;BME280;64371;47.566;19.086;2023-09-07T14:40:35;101003.63;;;27.58;30.29
75759;BME280;64371;47.566;19.086;2023-09-07T14:43:37;101004.38;;;27.55;30.81
75759;BME280;64371;47.566;19.086;2023-09-07T14:46:41;101001.66;;;27.55;30.97
75759;BME280;64371;47.566;19.086;2023-09-07T14:49:44;100991.97;;;27.51;30.44
75759;BME280;64371;47.566;19.086;2023-09-07T14:52:46;100992.66;;;27.44;30.99
75759;BME280;64371;47.566;19.086;2023-09-07T14:55:49;100991.13;;;27.47;30.79
75759;BME280;64371;47.566;19.086;2023-09-07T14:58:51;100990.34;;;27.39;30.64
75759;BME280;64371;47.566;19.086;2023-09-07T15:01:54;100989.09;;;27.30;29.97
75759;BME280;64371;47.566;19.086;2023-09-07T15:05:05;100996.06;;;27.34;30.50
75759;BME280;64371;47.566;19.086;2023-09-07T15:08:08;100998.81;;;27.38;30.41
75759;BME280;64371;47.566;19.086;2023-09-07T15:11:11;100987.13;;;27.27;30.45
75759;BME280;64371;47.566;19.086;2023-09-07T15:14:16;100996.38;;;27.22;30.86
75759;BME280;64371;47.566;19.086;2023-09-07T15:17:18;100988.94;;;27.16;30.60
75759;BME280;64371;47.566;19.086;2023-09-07T15:20:21;100985.50;;;27.15;30.69
75759;BME280;64371;47.566;19.086;2023-09-07T15:23:24;100978.59;;;27.25;30.32
75759;BME280;64371;47.566;19.086;2023-09-07T15:26:26;100978.91;;;27.13;30.03
75759;BME280;64371;47.566;19.086;2023-09-07T15:29:29;100982.69;;;27.05;30.00
75759;BME280;64371;47.566;19.086;2023-09-07T15:32:31;100982.34;;;27.10;30.50
75759;BME280;64371;47.566;19.086;2023-09-07T15:35:34;100980.75;;;27.05;30.68
75759;BME280;64371;47.566;19.086;2023-09-07T15:38:37;100975.38;;;27.09;30.34
75759;BME280;64371;47.566;19.086;2023-09-07T15:41:39;100973.78;;;27.01;30.43
75759;BME280;64371;47.566;19.086;2023-09-07T15:44:44;100974.06;;;26.92;30.71
75759;BME280;64371;47.566;19.086;2023-09-07T15:47:50;100983.34;;;26.91;31.00
75759;BME280;64371;47.566;19.086;2023-09-07T15:50:52;100979.88;;;26.90;30.73
75759;BME280;64371;47.566;19.086;2023-09-07T15:53:55;100987.16;;;26.86;30.84
75759;BME280;64371;47.566;19.086;2023-09-07T15:57:00;100982.78;;;26.75;31.14
75759;BME280;64371;47.566;19.086;2023-09-07T16:00:06;100982.72;;;26.68;31.15